DIRECCIÓN GENERAL DE AERONÁUTICA CIVIL
DIRECCIÓN METEOROLÓGICA DE CHILE
INFORMACIÓN METAR Y TAF

FIR PUERTO MONTT

Estación: SCTC
METAR SCTC 240200Z 07002KT 0200 FG FEW015 00/M00 Q1033=

TAF AMD SCTC 240211Z 2403/2500 00000KT 0400 FG OVC005 TNM01/2408Z TX08/2418Z TEMPO 2409/2412 0200 FG OVC002 BECMG 2412/2414 2000 BR OVC007 BECMG 2414/2416 28006KT 9999 NSW BKN020 OVC060 BECMG 2421/2423 5000 -RA OVC015=

Estación: SCVD
METAR SCVD 240200Z AUTO 00000KT 0550 R35/0500N FG FEW003 OVC049 03/03 Q1033=

TAF COR SCVD 231710Z 2318/2406 VRB02KT 7000 OVC020 TX06/2318Z TN03/ 2406Z=

Estación: SCJO
METAR SCJO 232300Z VRB01KT 9999 SCT030 05/05 Q1031=

TAF COR SCJO 231710Z 2318/2406 25005KT 9999 BKN020 TX10/2318Z TN02/ 2403Z BECMG 2323/2401 FEW040=

Estación: SCTE
METAR SCTE 240200Z VRB03KT 5000 -RA BKN040 05/04 Q1033 NOSIG=

TAF SCTE 232234Z 2400/2500 28005KT 9999 FEW015 BKN030 TN02/2409Z TX09 /2418Z TEMPO 2402/2407 31007KT 7000 -RA OVC025 BECMG 2415/2417 35010KT 4000 RA OVC017=

Estación: SCON
METAR SCON 240200Z AUTO 00000KT CAVOK 05/03 Q1030=

TAF COR SCON 231710Z 2318/2406 26007KT 9999 BKN015 TX10/2318Z TN05/ 2406Z PROB30 TEMPO 2403/2405 -SHRA=

Estación: SCTN
METAR SCTN NIL=

TAF SCTN NIL=

Estación: SCFT
METAR SCFT 240200Z AUTO 26007KT 210V270 9999 05/M01 Q1027=

TAF SCFT NIL=

Estación: SCAP
METAR SCAP 240200Z AUTO 22010KT 160V260 9999 -SHRA FEW030 OVC047 05/M00 Q1032=

TAF SCAP NIL=

Estación: SCMK
METAR SCMK 232200Z 26006KT 9999 SCT015 07/04 Q1027=

TAF COR SCMK 231710Z 2318/2406 25012KT 9999 BKN010 TX08/2318Z TN06/ 2406Z=

Estación: SCAS
METAR SCAS 182000Z 00000KT 9999 -RA SCT013 BKN026 OVC043 11/11 Q1014=

TAF SCAS NIL=

Estación: SCCY
METAR SCCY 232300Z 03004KT 9999 BKN033 05/M03 Q1022=

TAF COR SCCY 231710Z 2318/2406 27010KT 9999 FEW030 TX07/2318Z TN03/ 2406Z TEMPO 2318/2322 27010G20KT=

Estación: SCBA
METAR SCBA 240200Z AUTO 30019KT CAVOK 02/M04 Q1020=

TAF SCBA 232238Z 2400/2500 31015KT 9999 SCT040 TNM02/2410Z TX03/2418Z PROB30 TEMPO 2406/2413 -SHSN 6000 OVC025 BECMG 2414/2416 SCT030 BECMG 2421/2423 VRB02KT CAVOK=

Estación: SCCC
METAR SCCC 232100Z 32011KT 9999 FEW040 06/M07 Q1016=

TAF SCCC CECF 7687=

Estación: SCHR
METAR SCHR 232100Z 26006KT 9999 BKN030 03/M02 Q1017=

TAF SCHR 231112Z 2312/2400 26007KT 5000 SHSN FEW010 SCT018 BKN033 TNM01/2312Z TX03/2318Z TEMPO 2312/2316 24015G25KT 9999 NSW FEW033 BECMG 2317/2319 8000 -SHSN FEW015 SCT025=


Volver